sensor_id;sensor_type;location;lat;lon;timestamp;P1;durP1;ratioP1;P2;durP2;ratioP2
38182;SDS011;23991;52.430;10.586;2023-02-26T00:01:34;10.80;;;2.05;;
38182;SDS011;23991;52.430;10.586;2023-02-26T00:04:01;5.68;;;1.40;;
38182;SDS011;23991;52.430;10.586;2023-02-26T00:06:30;3.85;;;1.48;;
38182;SDS011;23991;52.430;10.586;2023-02-26T00:08:57;8.95;;;2.00;;
38182;SDS011;23991;52.430;10.586;2023-02-26T00:11:23;7.05;;;1.80;;
38182;SDS011;23991;52.430;10.586;2023-02-26T00:13:49;6.65;;;1.83;;
38182;SDS011;23991;52.430;10.586;2023-02-26T00:16:31;4.63;;;1.92;;
38182;SDS011;23991;52.430;10.586;2023-02-26T00:19:00;4.45;;;1.25;;
38182;SDS011;23991;52.430;10.586;2023-02-26T00:21:28;6.30;;;1.40;;
38182;SDS011;23991;52.430;10.586;2023-02-26T00:23:55;8.00;;;2.20;;
38182;SDS011;23991;52.430;10.586;2023-02-26T00:26:22;6.10;;;1.60;;
38182;SDS011;23991;52.430;10.586;2023-02-26T00:28:49;8.98;;;1.55;;
38182;SDS011;23991;52.430;10.586;2023-02-26T00:31:15;3.95;;;1.70;;
38182;SDS011;23991;52.430;10.586;2023-02-26T00:33:42;6.28;;;1.75;;
38182;SDS011;23991;52.430;10.586;2023-02-26T00:38:43;9.70;;;1.55;;
38182;SDS011;23991;52.430;10.586;2023-02-26T00:44:00;3.33;;;1.30;;
38182;SDS011;23991;52.430;10.586;2023-02-26T00:46:37;7.28;;;2.10;;
38182;SDS011;23991;52.430;10.586;2023-02-26T00:49:14;6.60;;;1.77;;
38182;SDS011;23991;52.430;10.586;2023-02-26T00:51:54;5.35;;;1.35;;
38182;SDS011;23991;52.430;10.586;2023-02-26T00:54:23;7.60;;;1.80;;
38182;SDS011;23991;52.430;10.586;2023-02-26T00:56:50;6.10;;;1.70;;
38182;SDS011;23991;52.430;10.586;2023-02-26T00:59:17;4.55;;;1.63;;
38182;SDS011;23991;52.430;10.586;2023-02-26T01:01:43;7.97;;;1.77;;
38182;SDS011;23991;52.430;10.586;2023-02-26T01:04:09;2.92;;;1.50;;
38182;SDS011;23991;52.430;10.586;2023-02-26T01:06:46;8.07;;;1.90;;
38182;SDS011;23991;52.430;10.586;2023-02-26T01:09:16;5.28;;;1.52;;
38182;SDS011;23991;52.430;10.586;2023-02-26T01:11:49;7.82;;;1.98;;
38182;SDS011;23991;52.430;10.586;2023-02-26T01:14:16;7.13;;;1.88;;
38182;SDS011;23991;52.430;10.586;2023-02-26T01:19:43;3.13;;;1.42;;
38182;SDS011;23991;52.430;10.586;2023-02-26T01:22:21;8.13;;;2.80;;
38182;SDS011;23991;52.430;10.586;2023-02-26T01:24:58;7.40;;;1.90;;
38182;SDS011;23991;52.430;10.586;2023-02-26T01:27:28;7.03;;;1.95;;
38182;SDS011;23991;52.430;10.586;2023-02-26T01:29:53;4.65;;;1.48;;
38182;SDS011;23991;52.430;10.586;2023-02-26T01:32:37;7.65;;;1.80;;
38182;SDS011;23991;52.430;10.586;2023-02-26T01:35:10;6.82;;;1.70;;
38182;SDS011;23991;52.430;10.586;2023-02-26T01:46:35;4.60;;;1.92;;
38182;SDS011;23991;52.430;10.586;2023-02-26T01:49:19;5.47;;;1.58;;
38182;SDS011;23991;52.430;10.586;2023-02-26T01:51:47;8.38;;;2.05;;
38182;SDS011;23991;52.430;10.586;2023-02-26T01:54:30;4.60;;;2.10;;
38182;SDS011;23991;52.430;10.586;2023-02-26T01:59:29;4.95;;;1.60;;
38182;SDS011;23991;52.430;10.586;2023-02-26T02:01:55;6.63;;;1.40;;
38182;SDS011;23991;52.430;10.586;2023-02-26T02:04:22;5.35;;;1.80;;
38182;SDS011;23991;52.430;10.586;2023-02-26T02:06:48;6.03;;;1.58;;
38182;SDS011;23991;52.430;10.586;2023-02-26T02:09:14;4.15;;;1.48;;
38182;SDS011;23991;52.430;10.586;2023-02-26T02:17:42;12.63;;;1.70;;
38182;SDS011;23991;52.430;10.586;2023-02-26T02:30:59;4.55;;;1.40;;
38182;SDS011;23991;52.430;10.586;2023-02-26T02:33:34;2.95;;;1.13;;
38182;SDS011;23991;52.430;10.586;2023-02-26T02:36:19;3.75;;;1.30;;
38182;SDS011;23991;52.430;10.586;2023-02-26T02:39:00;3.90;;;1.45;;
38182;SDS011;23991;52.430;10.586;2023-02-26T02:41:31;5.75;;;1.42;;
38182;SDS011;23991;52.430;10.586;2023-02-26T02:44:03;4.72;;;1.42;;
38182;SDS011;23991;52.430;10.586;2023-02-26T02:46:33;2.42;;;1.10;;
38182;SDS011;23991;52.430;10.586;2023-02-26T02:49:10;3.40;;;1.40;;
38182;SDS011;23991;52.430;10.586;2023-02-26T02:51:45;3.30;;;1.50;;
38182;SDS011;23991;52.430;10.586;2023-02-26T02:54:15;3.38;;;1.63;;
38182;SDS011;23991;52.430;10.586;2023-02-26T02:56:53;2.55;;;1.13;;
38182;SDS011;23991;52.430;10.586;2023-02-26T02:59:31;4.20;;;1.30;;
38182;SDS011;23991;52.430;10.586;2023-02-26T03:02:10;4.30;;;1.45;;
38182;SDS011;23991;52.430;10.586;2023-02-26T03:04:47;4.65;;;1.55;;
38182;SDS011;23991;52.430;10.586;2023-02-26T03:07:12;3.83;;;1.15;;
38182;SDS011;23991;52.430;10.586;2023-02-26T03:09:38;4.55;;;1.30;;
38182;SDS011;23991;52.430;10.586;2023-02-26T03:12:04;1.58;;;0.98;;
38182;SDS011;23991;52.430;10.586;2023-02-26T03:14:30;6.47;;;1.67;;
38182;SDS011;23991;52.430;10.586;2023-02-26T03:20:09;6.78;;;1.80;;
38182;SDS011;23991;52.430;10.586;2023-02-26T03:23:11;4.60;;;1.17;;
38182;SDS011;23991;52.430;10.586;2023-02-26T03:25:54;3.55;;;1.27;;
38182;SDS011;23991;52.430;10.586;2023-02-26T03:28:29;7.80;;;1.52;;
38182;SDS011;23991;52.430;10.586;2023-02-26T03:34:07;8.52;;;1.27;;
38182;SDS011;23991;52.430;10.586;2023-02-26T03:36:40;7.47;;;1.35;;
38182;SDS011;23991;52.430;10.586;2023-02-26T03:42:16;2.65;;;1.17;;
38182;SDS011;23991;52.430;10.586;2023-02-26T03:44:54;2.88;;;1.15;;
38182;SDS011;23991;52.430;10.586;2023-02-26T03:47:46;4.63;;;1.30;;
38182;SDS011;23991;52.430;10.586;2023-02-26T03:50:19;4.30;;;1.48;;
38182;SDS011;23991;52.430;10.586;2023-02-26T03:52:50;2.47;;;1.10;;
38182;SDS011;23991;52.430;10.586;2023-02-26T03:55:19;3.90;;;1.17;;
38182;SDS011;23991;52.430;10.586;2023-02-26T03:57:50;2.83;;;1.15;;
38182;SDS011;23991;52.430;10.586;2023-02-26T04:00:16;5.03;;;1.30;;
38182;SDS011;23991;52.430;10.586;2023-02-26T04:02:44;3.78;;;1.38;;
38182;SDS011;23991;52.430;10.586;2023-02-26T04:05:24;2.05;;;1.10;;
38182;SDS011;23991;52.430;10.586;2023-02-26T04:10:19;2.42;;;1.25;;
38182;SDS011;23991;52.430;10.586;2023-02-26T04:12:51;2.58;;;1.20;;
38182;SDS011;23991;52.430;10.586;2023-02-26T04:15:16;2.60;;;1.20;;
38182;SDS011;23991;52.430;10.586;2023-02-26T04:17:42;3.92;;;1.65;;
38182;SDS011;23991;52.430;10.586;2023-02-26T04:20:07;7.38;;;1.58;;
38182;SDS011;23991;52.430;10.586;2023-02-26T04:22:35;3.75;;;1.38;;
38182;SDS011;23991;52.430;10.586;2023-02-26T04:25:01;3.85;;;1.20;;
38182;SDS011;23991;52.430;10.586;2023-02-26T04:27:26;7.63;;;1.55;;
38182;SDS011;23991;52.430;10.586;2023-02-26T04:29:52;1.55;;;0.90;;
38182;SDS011;23991;52.430;10.586;2023-02-26T04:32:17;4.28;;;1.55;;
38182;SDS011;23991;52.430;10.586;2023-02-26T04:34:43;3.20;;;1.23;;
38182;SDS011;23991;52.430;10.586;2023-02-26T04:37:08;3.40;;;1.40;;
38182;SDS011;23991;52.430;10.586;2023-02-26T04:39:35;4.40;;;1.35;;
38182;SDS011;23991;52.430;10.586;2023-02-26T04:42:00;6.75;;;1.67;;
38182;SDS011;23991;52.430;10.586;2023-02-26T04:44:28;4.07;;;1.48;;
38182;SDS011;23991;52.430;10.586;2023-02-26T04:46:54;4.68;;;1.30;;
38182;SDS011;23991;52.430;10.586;2023-02-26T04:49:19;2.78;;;1.27;;
38182;SDS011;23991;52.430;10.586;2023-02-26T04:51:45;1.85;;;1.08;;
38182;SDS011;23991;52.430;10.586;2023-02-26T04:54:11;4.30;;;1.30;;
38182;SDS011;23991;52.430;10.586;2023-02-26T04:56:36;6.43;;;1.58;;
38182;SDS011;23991;52.430;10.586;2023-02-26T04:59:02;3.97;;;1.17;;
38182;SDS011;23991;52.430;10.586;2023-02-26T05:01:27;3.25;;;1.30;;
38182;SDS011;23991;52.430;10.586;2023-02-26T05:03:53;6.55;;;1.42;;
38182;SDS011;23991;52.430;10.586;2023-02-26T05:06:18;4.60;;;1.48;;
38182;SDS011;23991;52.430;10.586;2023-02-26T05:08:44;3.20;;;1.20;;
38182;SDS011;23991;52.430;10.586;2023-02-26T05:11:10;3.15;;;1.45;;
38182;SDS011;23991;52.430;10.586;2023-02-26T05:13:36;6.00;;;1.10;;
38182;SDS011;23991;52.430;10.586;2023-02-26T05:16:02;7.20;;;1.23;;
38182;SDS011;23991;52.430;10.586;2023-02-26T05:18:29;5.32;;;1.33;;
38182;SDS011;23991;52.430;10.586;2023-02-26T05:20:54;3.20;;;1.45;;
38182;SDS011;23991;52.430;10.586;2023-02-26T05:23:20;3.53;;;1.00;;
38182;SDS011;23991;52.430;10.586;2023-02-26T05:25:46;6.78;;;1.38;;
38182;SDS011;23991;52.430;10.586;2023-02-26T05:28:12;5.85;;;1.23;;
38182;SDS011;23991;52.430;10.586;2023-02-26T05:30:38;4.38;;;1.10;;
38182;SDS011;23991;52.430;10.586;2023-02-26T05:33:04;2.40;;;1.00;;
38182;SDS011;23991;52.430;10.586;2023-02-26T05:35:30;3.28;;;1.05;;
38182;SDS011;23991;52.430;10.586;2023-02-26T05:37:55;3.42;;;1.10;;
38182;SDS011;23991;52.430;10.586;2023-02-26T05:40:21;4.05;;;1.10;;
38182;SDS011;23991;52.430;10.586;2023-02-26T05:42:47;3.90;;;1.38;;
38182;SDS011;23991;52.430;10.586;2023-02-26T05:45:12;4.85;;;1.20;;
38182;SDS011;23991;52.430;10.586;2023-02-26T05:47:38;1.98;;;1.00;;
38182;SDS011;23991;52.430;10.586;2023-02-26T05:50:04;4.22;;;1.30;;
38182;SDS011;23991;52.430;10.586;2023-02-26T05:52:30;5.55;;;1.70;;
38182;SDS011;23991;52.430;10.586;2023-02-26T05:54:56;3.92;;;1.40;;
38182;SDS011;23991;52.430;10.586;2023-02-26T05:57:21;3.50;;;1.20;;
38182;SDS011;23991;52.430;10.586;2023-02-26T05:59:48;4.57;;;1.30;;
38182;SDS011;23991;52.430;10.586;2023-02-26T06:02:14;4.05;;;1.10;;
38182;SDS011;23991;52.430;10.586;2023-02-26T06:04:39;2.83;;;1.00;;
38182;SDS011;23991;52.430;10.586;2023-02-26T06:07:05;2.67;;;1.10;;
38182;SDS011;23991;52.430;10.586;2023-02-26T06:09:30;3.70;;;1.20;;
38182;SDS011;23991;52.430;10.586;2023-02-26T06:11:56;3.83;;;1.38;;
38182;SDS011;23991;52.430;10.586;2023-02-26T06:14:21;3.63;;;1.00;;
38182;SDS011;23991;52.430;10.586;2023-02-26T06:16:47;3.38;;;1.33;;
38182;SDS011;23991;52.430;10.586;2023-02-26T06:19:13;5.95;;;1.38;;
38182;SDS011;23991;52.430;10.586;2023-02-26T06:21:38;6.93;;;1.40;;
38182;SDS011;23991;52.430;10.586;2023-02-26T06:24:04;4.35;;;1.20;;
38182;SDS011;23991;52.430;10.586;2023-02-26T06:26:30;3.60;;;1.13;;
38182;SDS011;23991;52.430;10.586;2023-02-26T06:28:55;2.80;;;1.10;;
38182;SDS011;23991;52.430;10.586;2023-02-26T06:31:21;3.03;;;1.05;;
38182;SDS011;23991;52.430;10.586;2023-02-26T06:33:47;3.10;;;0.95;;
38182;SDS011;23991;52.430;10.586;2023-02-26T06:36:12;3.53;;;1.30;;
38182;SDS011;23991;52.430;10.586;2023-02-26T06:38:38;5.55;;;1.40;;
38182;SDS011;23991;52.430;10.586;2023-02-26T06:41:03;2.83;;;1.35;;
38182;SDS011;23991;52.430;10.586;2023-02-26T06:43:29;2.75;;;1.30;;
38182;SDS011;23991;52.430;10.586;2023-02-26T06:45:58;6.78;;;1.25;;
38182;SDS011;23991;52.430;10.586;2023-02-26T06:48:24;6.05;;;1.17;;
38182;SDS011;23991;52.430;10.586;2023-02-26T06:50:50;3.28;;;1.25;;
38182;SDS011;23991;52.430;10.586;2023-02-26T06:53:15;2.00;;;0.90;;
38182;SDS011;23991;52.430;10.586;2023-02-26T06:55:42;2.40;;;0.93;;
38182;SDS011;23991;52.430;10.586;2023-02-26T06:58:09;4.53;;;1.05;;
38182;SDS011;23991;52.430;10.586;2023-02-26T07:00:35;6.25;;;2.35;;
38182;SDS011;23991;52.430;10.586;2023-02-26T07:03:02;2.10;;;1.02;;
38182;SDS011;23991;52.430;10.586;2023-02-26T07:05:28;5.10;;;1.05;;
38182;SDS011;23991;52.430;10.586;2023-02-26T07:07:54;3.47;;;1.10;;
38182;SDS011;23991;52.430;10.586;2023-02-26T07:10:19;3.63;;;0.90;;
38182;SDS011;23991;52.430;10.586;2023-02-26T07:12:45;2.55;;;1.17;;
38182;SDS011;23991;52.430;10.586;2023-02-26T07:15:12;5.70;;;1.10;;
38182;SDS011;23991;52.430;10.586;2023-02-26T07:17:38;2.97;;;1.00;;
38182;SDS011;23991;52.430;10.586;2023-02-26T07:20:04;3.53;;;1.10;;
38182;SDS011;23991;52.430;10.586;2023-02-26T07:22:32;2.25;;;1.27;;
38182;SDS011;23991;52.430;10.586;2023-02-26T07:24:58;3.72;;;1.00;;
38182;SDS011;23991;52.430;10.586;2023-02-26T07:27:24;5.13;;;1.20;;
38182;SDS011;23991;52.430;10.586;2023-02-26T07:29:50;2.25;;;0.85;;
38182;SDS011;23991;52.430;10.586;2023-02-26T07:32:15;2.70;;;1.00;;
38182;SDS011;23991;52.430;10.586;2023-02-26T07:34:41;3.58;;;1.20;;
38182;SDS011;23991;52.430;10.586;2023-02-26T07:37:06;4.00;;;1.17;;
38182;SDS011;23991;52.430;10.586;2023-02-26T07:39:32;3.80;;;1.10;;
38182;SDS011;23991;52.430;10.586;2023-02-26T07:41:57;2.50;;;1.05;;
38182;SDS011;23991;52.430;10.586;2023-02-26T07:44:23;3.90;;;1.40;;
38182;SDS011;23991;52.430;10.586;2023-02-26T07:46:49;3.13;;;1.35;;
38182;SDS011;23991;52.430;10.586;2023-02-26T07:49:14;4.40;;;1.80;;
38182;SDS011;23991;52.430;10.586;2023-02-26T07:51:40;7.05;;;4.03;;
38182;SDS011;23991;52.430;10.586;2023-02-26T07:54:09;2.17;;;1.00;;
38182;SDS011;23991;52.430;10.586;2023-02-26T07:56:36;3.03;;;1.23;;
38182;SDS011;23991;52.430;10.586;2023-02-26T07:59:03;3.40;;;1.30;;
38182;SDS011;23991;52.430;10.586;2023-02-26T08:01:29;2.75;;;1.05;;
38182;SDS011;23991;52.430;10.586;2023-02-26T08:03:55;2.50;;;1.33;;
38182;SDS011;23991;52.430;10.586;2023-02-26T08:06:20;1.90;;;1.00;;
38182;SDS011;23991;52.430;10.586;2023-02-26T08:08:46;3.22;;;1.25;;
38182;SDS011;23991;52.430;10.586;2023-02-26T08:11:12;1.55;;;1.00;;
38182;SDS011;23991;52.430;10.586;2023-02-26T08:13:37;4.50;;;1.15;;
38182;SDS011;23991;52.430;10.586;2023-02-26T08:16:03;3.55;;;1.08;;
38182;SDS011;23991;52.430;10.586;2023-02-26T08:18:29;3.33;;;1.13;;
38182;SDS011;23991;52.430;10.586;2023-02-26T08:20:54;4.30;;;1.25;;
38182;SDS011;23991;52.430;10.586;2023-02-26T08:23:20;5.35;;;1.10;;
38182;SDS011;23991;52.430;10.586;2023-02-26T08:25:46;3.92;;;1.20;;
38182;SDS011;23991;52.430;10.586;2023-02-26T08:28:13;6.22;;;1.30;;
38182;SDS011;23991;52.430;10.586;2023-02-26T08:30:38;2.58;;;1.00;;
38182;SDS011;23991;52.430;10.586;2023-02-26T08:33:04;3.33;;;1.40;;
38182;SDS011;23991;52.430;10.586;2023-02-26T08:35:30;4.03;;;1.10;;
38182;SDS011;23991;52.430;10.586;2023-02-26T08:37:55;4.78;;;1.25;;
38182;SDS011;23991;52.430;10.586;2023-02-26T08:40:21;2.75;;;1.45;;
38182;SDS011;23991;52.430;10.586;2023-02-26T08:42:47;2.95;;;1.00;;
38182;SDS011;23991;52.430;10.586;2023-02-26T08:45:12;2.33;;;1.10;;
38182;SDS011;23991;52.430;10.586;2023-02-26T08:47:38;2.20;;;0.93;;
38182;SDS011;23991;52.430;10.586;2023-02-26T08:50:05;3.38;;;1.23;;
38182;SDS011;23991;52.430;10.586;2023-02-26T08:52:31;3.47;;;1.73;;
38182;SDS011;23991;52.430;10.586;2023-02-26T08:54:57;3.42;;;1.10;;
38182;SDS011;23991;52.430;10.586;2023-02-26T08:57:23;2.47;;;1.13;;
38182;SDS011;23991;52.430;10.586;2023-02-26T08:59:48;1.60;;;0.93;;
38182;SDS011;23991;52.430;10.586;2023-02-26T09:02:14;1.75;;;1.08;;
38182;SDS011;23991;52.430;10.586;2023-02-26T09:04:40;4.10;;;1.10;;
38182;SDS011;23991;52.430;10.586;2023-02-26T09:07:05;2.55;;;1.10;;
38182;SDS011;23991;52.430;10.586;2023-02-26T09:09:31;2.55;;;0.95;;
38182;SDS011;23991;52.430;10.586;2023-02-26T09:11:56;3.17;;;1.10;;
38182;SDS011;23991;52.430;10.586;2023-02-26T09:14:22;3.25;;;1.33;;
38182;SDS011;23991;52.430;10.586;2023-02-26T09:16:48;2.53;;;1.20;;
38182;SDS011;23991;52.430;10.586;2023-02-26T09:19:14;5.28;;;1.10;;
38182;SDS011;23991;52.430;10.586;2023-02-26T09:21:39;3.58;;;1.25;;
38182;SDS011;23991;52.430;10.586;2023-02-26T09:24:05;1.65;;;0.98;;
38182;SDS011;23991;52.430;10.586;2023-02-26T09:26:31;3.35;;;1.20;;
38182;SDS011;23991;52.430;10.586;2023-02-26T09:28:56;1.77;;;0.90;;
38182;SDS011;23991;52.430;10.586;2023-02-26T09:31:22;2.63;;;0.85;;
38182;SDS011;23991;52.430;10.586;2023-02-26T09:33:47;4.05;;;1.15;;
38182;SDS011;23991;52.430;10.586;2023-02-26T09:36:13;2.65;;;1.00;;
38182;SDS011;23991;52.430;10.586;2023-02-26T09:38:38;4.13;;;1.20;;
38182;SDS011;23991;52.430;10.586;2023-02-26T09:41:06;2.40;;;0.90;;
38182;SDS011;23991;52.430;10.586;2023-02-26T09:46:45;1.83;;;0.90;;
38182;SDS011;23991;52.430;10.586;2023-02-26T09:54:44;2.95;;;1.05;;
38182;SDS011;23991;52.430;10.586;2023-02-26T09:57:14;2.03;;;0.90;;
38182;SDS011;23991;52.430;10.586;2023-02-26T09:59:55;1.88;;;0.80;;
38182;SDS011;23991;52.430;10.586;2023-02-26T10:02:37;2.78;;;1.08;;
38182;SDS011;23991;52.430;10.586;2023-02-26T10:05:25;3.50;;;1.35;;
38182;SDS011;23991;52.430;10.586;2023-02-26T10:08:14;3.90;;;1.10;;
38182;SDS011;23991;52.430;10.586;2023-02-26T10:10:47;1.65;;;0.77;;
38182;SDS011;23991;52.430;10.586;2023-02-26T10:13:36;3.70;;;1.40;;
38182;SDS011;23991;52.430;10.586;2023-02-26T10:18:43;1.70;;;0.80;;
38182;SDS011;23991;52.430;10.586;2023-02-26T10:21:20;1.88;;;0.88;;
38182;SDS011;23991;52.430;10.586;2023-02-26T10:23:52;4.18;;;1.10;;
38182;SDS011;23991;52.430;10.586;2023-02-26T10:26:22;4.60;;;1.60;;
38182;SDS011;23991;52.430;10.586;2023-02-26T10:34:36;4.15;;;1.13;;
38182;SDS011;23991;52.430;10.586;2023-02-26T10:37:22;1.08;;;0.70;;
38182;SDS011;23991;52.430;10.586;2023-02-26T10:42:46;2.55;;;1.10;;
38182;SDS011;23991;52.430;10.586;2023-02-26T10:48:12;1.80;;;0.95;;
38182;SDS011;23991;52.430;10.586;2023-02-26T10:50:34;2.00;;;1.00;;
38182;SDS011;23991;52.430;10.586;2023-02-26T10:53:00;3.92;;;1.10;;
38182;SDS011;23991;52.430;10.586;2023-02-26T10:55:32;4.32;;;1.17;;
38182;SDS011;23991;52.430;10.586;2023-02-26T10:58:14;3.70;;;1.10;;
38182;SDS011;23991;52.430;10.586;2023-02-26T11:00:48;3.35;;;1.20;;
38182;SDS011;23991;52.430;10.586;2023-02-26T11:03:28;3.58;;;1.45;;
38182;SDS011;23991;52.430;10.586;2023-02-26T11:05:54;3.05;;;1.10;;
38182;SDS011;23991;52.430;10.586;2023-02-26T11:08:34;4.97;;;1.38;;
38182;SDS011;23991;52.430;10.586;2023-02-26T11:11:04;2.00;;;1.02;;
38182;SDS011;23991;52.430;10.586;2023-02-26T11:13:32;2.35;;;1.30;;
38182;SDS011;23991;52.430;10.586;2023-02-26T11:16:02;2.28;;;1.15;;
38182;SDS011;23991;52.430;10.586;2023-02-26T11:21:06;1.80;;;1.30;;
38182;SDS011;23991;52.430;10.586;2023-02-26T11:23:33;1.65;;;1.10;;
38182;SDS011;23991;52.430;10.586;2023-02-26T11:26:03;3.33;;;1.17;;
38182;SDS011;23991;52.430;10.586;2023-02-26T11:31:00;2.55;;;1.05;;
38182;SDS011;23991;52.430;10.586;2023-02-26T11:33:37;4.53;;;1.20;;
38182;SDS011;23991;52.430;10.586;2023-02-26T11:36:07;1.52;;;0.85;;
38182;SDS011;23991;52.430;10.586;2023-02-26T11:38:36;3.00;;;1.15;;
38182;SDS011;23991;52.430;10.586;2023-02-26T11:41:02;3.15;;;1.27;;
38182;SDS011;23991;52.430;10.586;2023-02-26T11:43:41;3.42;;;1.30;;
38182;SDS011;23991;52.430;10.586;2023-02-26T11:46:09;1.60;;;1.13;;
38182;SDS011;23991;52.430;10.586;2023-02-26T11:48:44;2.25;;;0.95;;
38182;SDS011;23991;52.430;10.586;2023-02-26T11:51:17;3.75;;;0.98;;
38182;SDS011;23991;52.430;10.586;2023-02-26T11:53:49;2.75;;;1.02;;
38182;SDS011;23991;52.430;10.586;2023-02-26T11:59:05;2.80;;;0.95;;
38182;SDS011;23991;52.430;10.586;2023-02-26T12:01:51;4.07;;;1.90;;
38182;SDS011;23991;52.430;10.586;2023-02-26T12:04:19;4.22;;;1.23;;
38182;SDS011;23991;52.430;10.586;2023-02-26T12:06:48;2.90;;;1.45;;
38182;SDS011;23991;52.430;10.586;2023-02-26T12:09:15;3.22;;;1.02;;
38182;SDS011;23991;52.430;10.586;2023-02-26T12:11:48;1.92;;;1.10;;
38182;SDS011;23991;52.430;10.586;2023-02-26T12:20:20;3.35;;;1.08;;
38182;SDS011;23991;52.430;10.586;2023-02-26T12:26:05;2.88;;;0.80;;
38182;SDS011;23991;52.430;10.586;2023-02-26T12:37:42;1.52;;;0.90;;
38182;SDS011;23991;52.430;10.586;2023-02-26T12:42:32;2.22;;;1.10;;
38182;SDS011;23991;52.430;10.586;2023-02-26T12:45:17;1.38;;;0.75;;
38182;SDS011;23991;52.430;10.586;2023-02-26T12:50:40;1.58;;;1.10;;
38182;SDS011;23991;52.430;10.586;2023-02-26T12:54:04;1.55;;;0.90;;
38182;SDS011;23991;52.430;10.586;2023-02-26T12:56:35;2.60;;;1.10;;
38182;SDS011;23991;52.430;10.586;2023-02-26T13:01:48;2.10;;;0.93;;
38182;SDS011;23991;52.430;10.586;2023-02-26T13:10:09;2.00;;;0.93;;
38182;SDS011;23991;52.430;10.586;2023-02-26T13:21:10;1.67;;;0.90;;
38182;SDS011;23991;52.430;10.586;2023-02-26T13:23:45;2.60;;;1.10;;
38182;SDS011;23991;52.430;10.586;2023-02-26T13:26:13;2.83;;;0.80;;
38182;SDS011;23991;52.430;10.586;2023-02-26T13:28:57;1.77;;;0.68;;
38182;SDS011;23991;52.430;10.586;2023-02-26T13:31:39;2.78;;;1.02;;
38182;SDS011;23991;52.430;10.586;2023-02-26T13:37:23;1.60;;;0.88;;
38182;SDS011;23991;52.430;10.586;2023-02-26T13:40:22;1.45;;;0.70;;
38182;SDS011;23991;52.430;10.586;2023-02-26T13:51:26;0.90;;;0.80;;
38182;SDS011;23991;52.430;10.586;2023-02-26T13:53:59;1.88;;;0.68;;
38182;SDS011;23991;52.430;10.586;2023-02-26T13:59:04;1.23;;;0.75;;
38182;SDS011;23991;52.430;10.586;2023-02-26T14:04:22;1.77;;;0.90;;
38182;SDS011;23991;52.430;10.586;2023-02-26T14:17:57;2.53;;;1.00;;
38182;SDS011;23991;52.430;10.586;2023-02-26T14:20:45;2.70;;;0.85;;
38182;SDS011;23991;52.430;10.586;2023-02-26T14:23:32;3.03;;;1.02;;
38182;SDS011;23991;52.430;10.586;2023-02-26T14:33:30;1.27;;;0.80;;
38182;SDS011;23991;52.430;10.586;2023-02-26T14:43:04;1.33;;;0.82;;
38182;SDS011;23991;52.430;10.586;2023-02-26T14:45:38;2.25;;;0.70;;
38182;SDS011;23991;52.430;10.586;2023-02-26T14:48:10;1.67;;;0.80;;
38182;SDS011;23991;52.430;10.586;2023-02-26T14:53:49;1.02;;;0.70;;
38182;SDS011;23991;52.430;10.586;2023-02-26T15:10:15;1.08;;;0.80;;
38182;SDS011;23991;52.430;10.586;2023-02-26T15:12:50;1.73;;;0.90;;
38182;SDS011;23991;52.430;10.586;2023-02-26T15:24:23;3.33;;;1.00;;
38182;SDS011;23991;52.430;10.586;2023-02-26T15:33:33;2.38;;;0.88;;
38182;SDS011;23991;52.430;10.586;2023-02-26T15:35:59;2.15;;;0.70;;
38182;SDS011;23991;52.430;10.586;2023-02-26T15:38:29;1.80;;;1.08;;
38182;SDS011;23991;52.430;10.586;2023-02-26T15:41:09;2.67;;;1.65;;
38182;SDS011;23991;52.430;10.586;2023-02-26T15:43:36;1.95;;;0.90;;
38182;SDS011;23991;52.430;10.586;2023-02-26T15:46:02;2.10;;;1.05;;
38182;SDS011;23991;52.430;10.586;2023-02-26T15:48:33;1.33;;;0.73;;
38182;SDS011;23991;52.430;10.586;2023-02-26T15:51:02;2.00;;;0.80;;
38182;SDS011;23991;52.430;10.586;2023-02-26T15:53:35;1.33;;;0.80;;
38182;SDS011;23991;52.430;10.586;2023-02-26T15:56:06;1.42;;;0.80;;
38182;SDS011;23991;52.430;10.586;2023-02-26T15:58:38;1.15;;;0.63;;
38182;SDS011;23991;52.430;10.586;2023-02-26T16:01:17;2.38;;;0.60;;
38182;SDS011;23991;52.430;10.586;2023-02-26T16:03:50;0.65;;;0.60;;
38182;SDS011;23991;52.430;10.586;2023-02-26T16:06:19;1.80;;;0.65;;
38182;SDS011;23991;52.430;10.586;2023-02-26T16:08:48;1.33;;;0.85;;
38182;SDS011;23991;52.430;10.586;2023-02-26T16:11:14;3.20;;;0.82;;
38182;SDS011;23991;52.430;10.586;2023-02-26T16:13:47;2.20;;;1.33;;
38182;SDS011;23991;52.430;10.586;2023-02-26T16:16:38;2.03;;;1.45;;
38182;SDS011;23991;52.430;10.586;2023-02-26T16:19:31;2.38;;;1.20;;
38182;SDS011;23991;52.430;10.586;2023-02-26T16:21:56;2.22;;;0.98;;
38182;SDS011;23991;52.430;10.586;2023-02-26T16:24:25;1.47;;;0.93;;
38182;SDS011;23991;52.430;10.586;2023-02-26T16:26:53;1.70;;;0.70;;
38182;SDS011;23991;52.430;10.586;2023-02-26T16:29:26;1.23;;;0.77;;
38182;SDS011;23991;52.430;10.586;2023-02-26T16:31:55;2.22;;;1.27;;
38182;SDS011;23991;52.430;10.586;2023-02-26T16:34:42;4.50;;;2.13;;
38182;SDS011;23991;52.430;10.586;2023-02-26T16:37:21;2.75;;;1.20;;
38182;SDS011;23991;52.430;10.586;2023-02-26T16:39:55;2.20;;;1.40;;
38182;SDS011;23991;52.430;10.586;2023-02-26T16:47:40;1.02;;;0.85;;
38182;SDS011;23991;52.430;10.586;2023-02-26T16:50:13;1.98;;;0.95;;
38182;SDS011;23991;52.430;10.586;2023-02-26T16:52:41;2.70;;;1.20;;
38182;SDS011;23991;52.430;10.586;2023-02-26T16:55:07;3.03;;;1.25;;
38182;SDS011;23991;52.430;10.586;2023-02-26T16:57:42;2.65;;;1.40;;
38182;SDS011;23991;52.430;10.586;2023-02-26T17:00:11;3.33;;;1.50;;
38182;SDS011;23991;52.430;10.586;2023-02-26T17:02:52;2.60;;;1.30;;
38182;SDS011;23991;52.430;10.586;2023-02-26T17:05:25;10.40;;;6.03;;
38182;SDS011;23991;52.430;10.586;2023-02-26T17:07:55;3.13;;;1.88;;
38182;SDS011;23991;52.430;10.586;2023-02-26T17:13:25;3.75;;;1.88;;
38182;SDS011;23991;52.430;10.586;2023-02-26T17:15:54;5.82;;;2.83;;
38182;SDS011;23991;52.430;10.586;2023-02-26T17:18:23;6.65;;;3.28;;
38182;SDS011;23991;52.430;10.586;2023-02-26T17:20:49;3.45;;;2.20;;
38182;SDS011;23991;52.430;10.586;2023-02-26T17:23:15;3.10;;;1.48;;
38182;SDS011;23991;52.430;10.586;2023-02-26T17:25:47;3.83;;;1.20;;
38182;SDS011;23991;52.430;10.586;2023-02-26T17:28:25;1.77;;;1.13;;
38182;SDS011;23991;52.430;10.586;2023-02-26T17:30:52;4.60;;;2.20;;
38182;SDS011;23991;52.430;10.586;2023-02-26T17:33:18;3.08;;;1.77;;
38182;SDS011;23991;52.430;10.586;2023-02-26T17:35:44;4.70;;;2.97;;
38182;SDS011;23991;52.430;10.586;2023-02-26T17:38:11;3.47;;;1.92;;
38182;SDS011;23991;52.430;10.586;2023-02-26T17:40:37;1.67;;;1.25;;
38182;SDS011;23991;52.430;10.586;2023-02-26T17:43:05;1.55;;;0.90;;
38182;SDS011;23991;52.430;10.586;2023-02-26T17:45:32;2.90;;;1.30;;
38182;SDS011;23991;52.430;10.586;2023-02-26T17:47:58;2.85;;;1.40;;
38182;SDS011;23991;52.430;10.586;2023-02-26T17:53:27;2.97;;;1.33;;
38182;SDS011;23991;52.430;10.586;2023-02-26T17:55:53;3.95;;;1.92;;
38182;SDS011;23991;52.430;10.586;2023-02-26T17:58:29;3.42;;;1.90;;
38182;SDS011;23991;52.430;10.586;2023-02-26T18:00:58;4.40;;;1.88;;
38182;SDS011;23991;52.430;10.586;2023-02-26T18:03:24;5.20;;;2.55;;
38182;SDS011;23991;52.430;10.586;2023-02-26T18:05:50;6.55;;;3.13;;
38182;SDS011;23991;52.430;10.586;2023-02-26T18:08:22;18.08;;;9.20;;
38182;SDS011;23991;52.430;10.586;2023-02-26T18:10:50;21.13;;;11.70;;
38182;SDS011;23991;52.430;10.586;2023-02-26T18:13:16;21.98;;;12.20;;
38182;SDS011;23991;52.430;10.586;2023-02-26T18:15:42;16.17;;;8.30;;